Terminal Aerodrome Forecast
Issued by NWS

Home | Current Version | Previous Version | Text Only | Print | Product List | Glossary On
Versions: 1 2 3 4 5 6 7 8 9 10 11 12 13 14 15 16
000
FTUS42 KMLB 260500
TAFTIX
TAF
KTIX 260529Z 2606/2706 19005KT P6SM SCT100 SCT130 BKN250
     FM261100 22009KT P6SM VCSH BKN030 BKN050
     FM261400 26015G22KT P6SM SCT030 BKN050 BKN100
     FM261600 28020G29KT P6SM FEW030 SCT050 SCT100
     FM270000 29012G20KT P6SM FEW100
      AMD NOT SKED TIL 261200=

USA.gov is the U.S. government's official web portal to all federal, state and local government web resources and services.